createdAt,value
2019-03-09T00:00:53.823Z,0.00
2019-03-09T00:01:53.741Z,0.00
2019-03-09T00:02:53.660Z,0.00
2019-03-09T00:03:53.582Z,0.00
2019-03-09T00:04:53.501Z,0.00
2019-03-09T00:05:53.450Z,0.00
2019-03-09T00:06:53.341Z,0.00
2019-03-09T00:07:53.262Z,0.00
2019-03-09T00:08:53.196Z,0.00
2019-03-09T00:09:53.102Z,0.00
2019-03-09T00:10:53.022Z,0.00
2019-03-09T00:11:52.942Z,0.00
2019-03-09T00:12:52.861Z,0.00
2019-03-09T00:13:52.781Z,0.00
2019-03-09T00:14:52.703Z,0.00
2019-03-09T00:15:52.657Z,0.00
2019-03-09T00:16:52.543Z,0.00
2019-03-09T00:17:52.462Z,0.00
2019-03-09T00:18:52.381Z,0.00
2019-03-09T00:19:52.303Z,0.00
2019-03-09T00:20:52.228Z,0.00
2019-03-09T00:21:52.143Z,0.00
2019-03-09T00:22:52.066Z,0.00
2019-03-09T00:23:51.995Z,0.00
2019-03-09T00:24:51.903Z,0.00
2019-03-09T00:25:51.823Z,0.00
2019-03-09T00:26:51.743Z,0.00
2019-03-09T00:27:51.664Z,0.00
2019-03-09T00:28:51.583Z,0.00
2019-03-09T00:29:51.507Z,0.00
2019-03-09T00:30:51.425Z,0.00
2019-03-09T00:31:51.343Z,0.00
2019-03-09T00:32:51.270Z,0.00
2019-03-09T00:33:51.184Z,0.00
2019-03-09T00:34:51.132Z,0.00
2019-03-09T00:35:51.023Z,0.00
2019-03-09T00:36:50.950Z,0.00
2019-03-09T00:37:51.068Z,0.00
2019-03-09T00:38:50.785Z,0.00
2019-03-09T00:39:50.705Z,0.00
2019-03-09T00:40:50.627Z,0.00
2019-03-09T00:41:50.544Z,0.00
2019-03-09T00:42:50.573Z,0.00
2019-03-09T00:43:50.386Z,0.00
2019-03-09T00:44:50.305Z,0.00
2019-03-09T00:45:50.225Z,0.00
2019-03-09T00:46:50.143Z,0.00
2019-03-09T00:47:50.066Z,0.00
2019-03-09T00:48:49.988Z,0.00
2019-03-09T00:49:49.912Z,0.00
2019-03-09T00:50:49.824Z,0.00
2019-03-09T00:51:49.745Z,0.00
2019-03-09T00:52:49.670Z,0.00
2019-03-09T00:53:49.585Z,0.00
2019-03-09T00:54:49.505Z,0.00
2019-03-09T00:55:49.456Z,0.00
2019-03-09T00:56:49.344Z,0.00
2019-03-09T00:57:49.266Z,0.00
2019-03-09T00:58:49.184Z,0.00
2019-03-09T00:59:49.106Z,0.00
2019-03-09T01:00:49.025Z,0.00
2019-03-09T01:01:48.945Z,0.00
2019-03-09T01:02:50.956Z,0.00
2019-03-09T01:03:48.784Z,0.00
2019-03-09T01:04:48.705Z,0.00
2019-03-09T01:05:48.628Z,0.00
2019-03-09T01:06:48.555Z,0.00
2019-03-09T01:07:48.464Z,0.00
2019-03-09T01:08:48.385Z,0.00
2019-03-09T01:09:48.303Z,0.00
2019-03-09T01:10:48.228Z,0.00
2019-03-09T01:11:48.146Z,0.00
2019-03-09T01:12:48.065Z,0.00
2019-03-09T01:13:47.984Z,0.00
2019-03-09T01:14:47.930Z,0.00
2019-03-09T01:15:47.830Z,0.00
2019-03-09T01:16:47.746Z,0.00
2019-03-09T01:17:47.666Z,0.00
2019-03-09T01:18:47.587Z,0.00
2019-03-09T01:19:47.507Z,0.00
2019-03-09T01:20:47.428Z,0.00
2019-03-09T01:21:47.348Z,0.00
2019-03-09T01:22:47.274Z,0.00
2019-03-09T01:23:47.188Z,0.00
2019-03-09T01:24:47.109Z,0.00
2019-03-09T01:25:47.028Z,0.00
2019-03-09T01:26:46.948Z,0.00
2019-03-09T01:27:47.074Z,0.00
2019-03-09T01:28:46.792Z,0.00
2019-03-09T01:29:46.708Z,0.00
2019-03-09T01:30:46.653Z,0.00
2019-03-09T01:31:46.549Z,0.00
2019-03-09T01:32:46.469Z,0.00
2019-03-09T01:33:46.488Z,0.00
2019-03-09T01:34:46.309Z,0.00
2019-03-09T01:35:46.230Z,0.00
2019-03-09T01:36:46.149Z,0.00
2019-03-09T01:37:46.069Z,0.00
2019-03-09T01:38:45.990Z,0.00
2019-03-09T01:39:45.909Z,0.00
2019-03-09T01:40:45.830Z,0.00
2019-03-09T01:41:45.750Z,0.00
2019-03-09T01:42:45.670Z,0.00
2019-03-09T01:43:45.591Z,0.00
2019-03-09T01:44:45.511Z,0.00
2019-03-09T01:45:45.432Z,0.00
2019-03-09T01:46:45.354Z,0.00
2019-03-09T01:47:45.270Z,0.00
2019-03-09T01:48:45.192Z,0.00
2019-03-09T01:49:45.110Z,0.00
2019-03-09T01:50:45.032Z,0.00
2019-03-09T01:51:44.953Z,0.00
2019-03-09T01:52:44.873Z,0.00
2019-03-09T01:53:44.791Z,0.00
2019-03-09T01:54:44.715Z,0.00
2019-03-09T01:55:44.632Z,0.00
2019-03-09T01:56:44.553Z,0.00
2019-03-09T01:57:44.473Z,0.00
2019-03-09T01:58:44.392Z,0.00
2019-03-09T01:59:44.315Z,0.00
2019-03-09T02:00:44.233Z,0.00
2019-03-09T02:01:44.159Z,0.00
2019-03-09T02:02:44.073Z,0.00
2019-03-09T02:03:44.006Z,0.00
2019-03-09T02:04:43.913Z,0.00
2019-03-09T02:05:43.836Z,0.00
2019-03-09T02:06:43.755Z,0.00
2019-03-09T02:07:43.678Z,0.00
2019-03-09T02:08:43.595Z,0.00
2019-03-09T02:09:43.514Z,0.00
2019-03-09T02:10:43.434Z,0.00
2019-03-09T02:11:43.354Z,0.00
2019-03-09T02:12:43.279Z,0.00
2019-03-09T02:13:43.194Z,0.00
2019-03-09T02:14:43.116Z,0.00
2019-03-09T02:15:43.035Z,0.00
2019-03-09T02:16:42.955Z,0.00
2019-03-09T02:17:43.094Z,0.00
2019-03-09T02:18:42.795Z,0.00
2019-03-09T02:19:42.717Z,0.00
2019-03-09T02:20:42.635Z,0.00
2019-03-09T02:21:42.554Z,0.00
2019-03-09T02:22:42.475Z,0.00
2019-03-09T02:23:42.396Z,0.00
2019-03-09T02:24:42.316Z,0.00
2019-03-09T02:25:42.235Z,0.00
2019-03-09T02:26:42.156Z,0.00
2019-03-09T02:27:42.077Z,0.00
2019-03-09T02:28:42.000Z,0.00
2019-03-09T02:29:41.915Z,0.00
2019-03-09T02:30:41.838Z,0.00
2019-03-09T02:31:41.756Z,0.00
2019-03-09T02:32:41.705Z,0.00
2019-03-09T02:33:41.596Z,0.00
2019-03-09T02:34:41.515Z,0.00
2019-03-09T02:35:41.437Z,0.00
2019-03-09T02:36:41.357Z,0.00
2019-03-09T02:37:41.302Z,0.00
2019-03-09T02:38:41.244Z,0.00
2019-03-09T02:39:41.117Z,0.00
2019-03-09T02:40:41.037Z,0.00
2019-03-09T02:41:40.965Z,0.00
2019-03-09T02:42:40.879Z,0.00
2019-03-09T02:43:40.796Z,0.00
2019-03-09T02:44:40.715Z,0.00
2019-03-09T02:45:40.664Z,0.00
2019-03-09T02:46:40.585Z,0.00
2019-03-09T02:47:40.479Z,0.00
2019-03-09T02:48:40.397Z,0.00
2019-03-09T02:49:40.318Z,0.00
2019-03-09T02:50:40.244Z,0.00
2019-03-09T02:51:40.184Z,0.00
2019-03-09T02:52:40.077Z,0.00
2019-03-09T02:53:39.997Z,0.00
2019-03-09T02:54:39.919Z,0.00
2019-03-09T02:55:39.837Z,0.00
2019-03-09T02:56:39.774Z,0.00
2019-03-09T02:57:39.677Z,0.00
2019-03-09T02:58:39.598Z,0.00
2019-03-09T02:59:39.519Z,0.00
2019-03-09T03:00:39.772Z,0.00
2019-03-09T03:01:39.358Z,0.00
2019-03-09T03:02:39.278Z,0.00
2019-03-09T03:03:39.226Z,0.00
2019-03-09T03:04:39.118Z,0.00
2019-03-09T03:05:39.039Z,0.00
2019-03-09T03:06:38.960Z,0.00
2019-03-09T03:07:38.937Z,0.00
2019-03-09T03:08:38.834Z,0.00
2019-03-09T03:09:38.729Z,0.00
2019-03-09T03:10:38.640Z,0.00
2019-03-09T03:11:38.569Z,0.00
2019-03-09T03:12:38.481Z,0.00
2019-03-09T03:13:38.398Z,0.00
2019-03-09T03:14:38.319Z,0.00
2019-03-09T03:15:38.239Z,0.00
2019-03-09T03:16:38.162Z,0.00
2019-03-09T03:17:38.080Z,0.00
2019-03-09T03:18:38.003Z,0.00
2019-03-09T03:19:37.920Z,0.00
2019-03-09T03:20:37.844Z,0.00
2019-03-09T03:21:37.762Z,0.00
2019-03-09T03:22:37.683Z,0.00
2019-03-09T03:23:37.683Z,0.00
2019-03-09T03:24:37.522Z,0.00
2019-03-09T03:25:37.442Z,0.00
2019-03-09T03:26:37.370Z,0.00
2019-03-09T03:27:37.284Z,0.00
2019-03-09T03:28:37.204Z,0.00
2019-03-09T03:29:37.123Z,0.00
2019-03-09T03:30:37.044Z,0.00
2019-03-09T03:31:36.981Z,0.00
2019-03-09T03:32:36.896Z,0.00
2019-03-09T03:33:36.805Z,0.00
2019-03-09T03:34:36.753Z,0.00
2019-03-09T03:35:36.673Z,0.00
2019-03-09T03:36:36.565Z,0.00
2019-03-09T03:37:36.484Z,0.00
2019-03-09T03:38:36.404Z,0.00
2019-03-09T03:39:36.324Z,0.00
2019-03-09T03:40:36.275Z,0.00
2019-03-09T03:41:36.191Z,0.00
2019-03-09T03:42:36.086Z,0.00
2019-03-09T03:43:36.005Z,0.00
2019-03-09T03:44:35.955Z,0.00
2019-03-09T03:45:35.845Z,0.00
2019-03-09T03:46:35.769Z,0.00
2019-03-09T03:47:35.690Z,0.00
2019-03-09T03:48:35.609Z,0.00
2019-03-09T03:49:35.533Z,0.00
2019-03-09T03:50:35.447Z,0.00
2019-03-09T03:51:35.366Z,0.00
2019-03-09T03:52:35.287Z,0.00
2019-03-09T03:53:35.207Z,0.00
2019-03-09T03:54:35.128Z,0.00
2019-03-09T03:55:35.049Z,0.00
2019-03-09T03:56:34.968Z,0.00
2019-03-09T03:57:34.908Z,0.00
2019-03-09T03:58:34.807Z,0.00
2019-03-09T03:59:34.728Z,0.00
2019-03-09T04:00:34.648Z,0.00
2019-03-09T04:01:34.567Z,0.00
2019-03-09T04:02:34.491Z,0.00
2019-03-09T04:03:34.409Z,0.00
2019-03-09T04:04:34.328Z,0.00
2019-03-09T04:05:34.246Z,0.00
2019-03-09T04:06:34.198Z,0.00
2019-03-09T04:07:34.087Z,0.00
2019-03-09T04:08:34.017Z,0.00
2019-03-09T04:09:33.927Z,0.00
2019-03-09T04:10:33.847Z,0.00
2019-03-09T04:11:33.767Z,0.00
2019-03-09T04:12:33.698Z,0.00
2019-03-09T04:13:33.608Z,0.00
2019-03-09T04:14:33.555Z,0.00
2019-03-09T04:15:33.447Z,0.00
2019-03-09T04:16:33.368Z,0.00
2019-03-09T04:17:33.285Z,0.00
2019-03-09T04:18:33.208Z,0.00
2019-03-09T04:19:33.125Z,0.00
2019-03-09T04:20:33.046Z,0.00
2019-03-09T04:21:32.965Z,0.00
2019-03-09T04:22:32.884Z,0.00
2019-03-09T04:23:32.808Z,0.00
2019-03-09T04:24:32.725Z,0.00
2019-03-09T04:25:32.745Z,0.00
2019-03-09T04:26:32.594Z,0.00
2019-03-09T04:27:32.483Z,0.00
2019-03-09T04:28:32.401Z,0.00
2019-03-09T04:29:32.322Z,0.00
2019-03-09T04:30:32.242Z,0.00
2019-03-09T04:31:32.168Z,0.00
2019-03-09T04:32:32.080Z,0.00
2019-03-09T04:33:32.000Z,0.00
2019-03-09T04:34:31.919Z,0.00
2019-03-09T04:35:31.838Z,0.00
2019-03-09T04:36:31.762Z,0.00
2019-03-09T04:37:31.677Z,0.00
2019-03-09T04:38:31.596Z,0.00
2019-03-09T04:39:31.516Z,0.00
2019-03-09T04:40:31.439Z,0.00
2019-03-09T04:41:31.379Z,0.00
2019-03-09T04:42:31.273Z,0.00
2019-03-09T04:43:31.194Z,0.00
2019-03-09T04:44:31.113Z,0.00
2019-03-09T04:45:31.031Z,0.00
2019-03-09T04:46:30.952Z,0.00
2019-03-09T04:47:30.870Z,0.00
2019-03-09T04:48:30.792Z,0.00
2019-03-09T04:49:30.709Z,0.00
2019-03-09T04:50:30.628Z,0.00
2019-03-09T04:51:30.551Z,0.00
2019-03-09T04:52:30.468Z,0.00
2019-03-09T04:53:30.388Z,0.00
2019-03-09T04:54:30.306Z,0.00
2019-03-09T04:55:30.225Z,0.00
2019-03-09T04:56:30.347Z,0.00
2019-03-09T04:57:30.064Z,0.00
2019-03-09T04:58:29.985Z,0.00
2019-03-09T04:59:29.903Z,0.00
2019-03-09T05:00:29.825Z,0.00
2019-03-09T05:01:29.741Z,0.00
2019-03-09T05:02:29.662Z,0.00
2019-03-09T05:03:29.783Z,0.00
2019-03-09T05:04:29.500Z,0.00
2019-03-09T05:05:29.421Z,0.00
2019-03-09T05:06:31.961Z,0.00
2019-03-09T05:07:29.258Z,0.00
2019-03-09T05:08:29.177Z,0.00
2019-03-09T05:09:29.096Z,0.00
2019-03-09T05:10:29.018Z,0.00
2019-03-09T05:11:28.936Z,0.00
2019-03-09T05:13:21.342Z,0.00
2019-03-09T05:14:21.261Z,0.00
2019-03-09T05:15:21.179Z,0.00
2019-03-09T05:16:21.099Z,0.00
2019-03-09T05:17:21.019Z,0.00
2019-03-09T05:18:20.937Z,0.00
2019-03-09T05:19:20.857Z,0.00
2019-03-09T05:20:20.776Z,0.00
2019-03-09T05:21:20.695Z,0.00
2019-03-09T05:22:20.615Z,0.00
2019-03-09T05:23:20.534Z,0.00
2019-03-09T05:24:20.453Z,0.00
2019-03-09T05:25:20.372Z,0.00
2019-03-09T05:26:20.293Z,0.00
2019-03-09T05:27:20.414Z,0.00
2019-03-09T05:28:20.130Z,0.00
2019-03-09T05:29:20.050Z,0.00
2019-03-09T05:30:19.968Z,0.00
2019-03-09T05:31:19.888Z,0.00
2019-03-09T05:32:19.808Z,0.00
2019-03-09T05:33:19.726Z,0.00
2019-03-09T05:34:19.645Z,4.00
2019-03-09T05:35:19.565Z,4.00
2019-03-09T05:36:19.486Z,4.00
2019-03-09T05:37:19.404Z,4.00
2019-03-09T05:38:19.323Z,4.00
2019-03-09T05:39:19.243Z,12.00
2019-03-09T05:40:19.163Z,12.00
2019-03-09T05:41:19.083Z,16.00
2019-03-09T05:42:19.001Z,20.00
2019-03-09T05:43:18.923Z,16.00
2019-03-09T05:44:18.840Z,12.00
2019-03-09T05:45:18.759Z,12.00
2019-03-09T05:46:18.679Z,12.00
2019-03-09T05:47:18.598Z,12.00
2019-03-09T05:48:18.525Z,12.00
2019-03-09T05:49:18.436Z,16.00
2019-03-09T05:50:18.357Z,16.00
2019-03-09T05:51:18.275Z,16.00
2019-03-09T05:52:18.196Z,20.00
2019-03-09T05:53:18.119Z,20.00
2019-03-09T05:54:18.034Z,28.00
2019-03-09T05:55:17.953Z,24.00
2019-03-09T05:56:17.874Z,32.00
2019-03-09T05:57:17.792Z,32.00
2019-03-09T05:58:17.716Z,32.00
2019-03-09T05:59:17.631Z,32.00
2019-03-09T06:00:17.551Z,44.00
2019-03-09T06:01:17.469Z,76.00
2019-03-09T06:02:17.390Z,60.00
2019-03-09T06:03:17.309Z,56.00
2019-03-09T06:04:17.228Z,56.00
2019-03-09T06:05:17.151Z,52.00
2019-03-09T06:06:17.066Z,40.00
2019-03-09T06:07:16.989Z,48.00
2019-03-09T06:08:16.924Z,60.00
2019-03-09T06:09:16.824Z,64.00
2019-03-09T06:10:16.746Z,68.00
2019-03-09T06:11:16.669Z,108.00
2019-03-09T06:12:16.620Z,148.00
2019-03-09T06:13:16.503Z,176.00
2019-03-09T06:14:16.424Z,176.00
2019-03-09T06:15:16.342Z,120.00
2019-03-09T06:16:16.262Z,100.00
2019-03-09T06:17:16.180Z,80.00
2019-03-09T06:18:16.100Z,76.00
2019-03-09T06:19:16.020Z,92.00
2019-03-09T06:20:15.941Z,92.00
2019-03-09T06:21:15.859Z,112.00
2019-03-09T06:22:15.777Z,116.00
2019-03-09T06:23:15.699Z,172.00
2019-03-09T06:24:15.641Z,252.00
2019-03-09T06:25:15.540Z,244.00
2019-03-09T06:26:15.457Z,188.00
2019-03-09T06:27:15.407Z,224.00
2019-03-09T06:28:15.294Z,160.00
2019-03-09T06:29:15.225Z,168.00
2019-03-09T06:30:15.134Z,116.00
2019-03-09T06:31:15.053Z,140.00
2019-03-09T06:32:14.974Z,124.00
2019-03-09T06:33:14.893Z,128.00
2019-03-09T06:34:14.811Z,148.00
2019-03-09T06:35:14.730Z,112.00
2019-03-09T06:38:50.291Z,128.00
2019-03-09T06:39:50.205Z,156.00
2019-03-09T06:40:50.125Z,140.00
2019-03-09T06:41:50.044Z,152.00
2019-03-09T06:42:49.962Z,108.00
2019-03-09T06:43:49.882Z,148.00
2019-03-09T06:44:49.801Z,148.00
2019-03-09T06:45:49.721Z,148.00
2019-03-09T06:46:50.146Z,188.00
2019-03-09T06:47:49.559Z,296.00
2019-03-09T06:48:49.479Z,328.00
2019-03-09T06:49:49.399Z,264.00
2019-03-09T06:50:49.316Z,340.00
2019-03-09T06:51:49.236Z,216.00
2019-03-09T06:52:49.158Z,284.00
2019-03-09T06:53:49.077Z,332.00
2019-03-09T06:54:48.995Z,268.00
2019-03-09T06:55:48.913Z,208.00
2019-03-09T07:00:26.987Z,584.00
2019-03-09T07:01:26.879Z,352.00
2019-03-09T07:02:26.801Z,384.00
2019-03-09T07:04:19.264Z,580.00
2019-03-09T07:05:19.183Z,616.00
2019-03-09T07:06:21.725Z,512.00
2019-03-09T07:07:19.021Z,720.00
2019-03-09T07:08:18.945Z,692.00
2019-03-09T07:09:18.858Z,700.00
2019-03-09T07:10:18.777Z,804.00
2019-03-09T07:11:18.698Z,764.00
2019-03-09T07:12:18.626Z,572.00
2019-03-09T07:13:18.541Z,916.00
2019-03-09T07:14:18.458Z,812.00
2019-03-09T07:15:18.374Z,816.00
2019-03-09T07:16:18.294Z,732.00
2019-03-09T07:17:18.213Z,656.00
2019-03-09T07:18:18.131Z,860.00
2019-03-09T07:19:18.051Z,1112.00
2019-03-09T07:20:17.972Z,1084.00
2019-03-09T07:21:17.890Z,1128.00
2019-03-09T07:22:17.810Z,840.00
2019-03-09T07:23:17.730Z,952.00
2019-03-09T07:24:17.649Z,1204.00
2019-03-09T07:25:17.568Z,1572.00
2019-03-09T07:26:17.488Z,1560.00
2019-03-09T07:27:20.031Z,1352.00
2019-03-09T07:28:17.330Z,1252.00
2019-03-09T07:29:17.248Z,1136.00
2019-03-09T07:30:17.167Z,1100.00
2019-03-09T07:31:17.086Z,1032.00
2019-03-09T07:32:17.006Z,1216.00
2019-03-09T07:33:16.926Z,1364.00
2019-03-09T07:34:16.852Z,1148.00
2019-03-09T07:35:16.769Z,1564.00
2019-03-09T07:36:16.689Z,1640.00
2019-03-09T07:37:16.605Z,2176.00
2019-03-09T07:38:16.529Z,1956.00
2019-03-09T07:39:16.446Z,2176.00
2019-03-09T07:40:16.365Z,2416.00
2019-03-09T07:41:16.284Z,2292.00
2019-03-09T07:42:16.204Z,1888.00
2019-03-09T07:43:16.127Z,1860.00
2019-03-09T07:44:16.246Z,2188.00
2019-03-09T07:45:15.966Z,2708.00
2019-03-09T07:46:15.884Z,2304.00
2019-03-09T07:47:15.804Z,2856.00
2019-03-09T07:48:15.724Z,2332.00
2019-03-09T07:49:15.645Z,2076.00
2019-03-09T07:50:15.566Z,1996.00
2019-03-09T07:51:15.485Z,1972.00
2019-03-09T07:52:15.404Z,2296.00
2019-03-09T07:53:15.325Z,2208.00
2019-03-09T07:54:15.246Z,3048.00
2019-03-09T07:55:15.169Z,2772.00
2019-03-09T07:56:15.288Z,2628.00
2019-03-09T07:57:15.005Z,2968.00
2019-03-09T07:58:14.955Z,2588.00
2019-03-09T07:59:14.848Z,3308.00
2019-03-09T08:00:14.767Z,3064.00
2019-03-09T08:01:14.690Z,2860.00
2019-03-09T08:02:14.608Z,3532.00
2019-03-09T08:03:14.529Z,3176.00
2019-03-09T08:04:14.448Z,2604.00
2019-03-09T08:05:14.369Z,3016.00
2019-03-09T08:06:14.289Z,3056.00
2019-03-09T08:07:14.916Z,2952.00
2019-03-09T08:08:14.130Z,1696.00
2019-03-09T08:09:14.051Z,1588.00
2019-03-09T08:10:13.972Z,2216.00
2019-03-09T08:11:13.892Z,2556.00
2019-03-09T08:12:13.862Z,3056.00
2019-03-09T08:13:13.732Z,3836.00
2019-03-09T08:14:13.653Z,2836.00
2019-03-09T08:15:14.342Z,3324.00
2019-03-09T08:16:13.496Z,2232.00
2019-03-09T08:17:13.414Z,2052.00
2019-03-09T08:18:13.335Z,1472.00
2019-03-09T08:19:13.288Z,1544.00
2019-03-09T08:20:13.176Z,2080.00
2019-03-09T08:21:13.101Z,4220.00
2019-03-09T08:22:13.019Z,3812.00
2019-03-09T08:23:12.966Z,3340.00
2019-03-09T08:24:12.865Z,3852.00
2019-03-09T08:25:12.804Z,4160.00
2019-03-09T08:26:12.701Z,4436.00
2019-03-09T08:27:12.664Z,5308.00
2019-03-09T08:28:12.565Z,5352.00
2019-03-09T08:29:12.489Z,5000.00
2019-03-09T08:30:12.383Z,4256.00
2019-03-09T08:31:12.507Z,4440.00
2019-03-09T08:32:12.234Z,3236.00
2019-03-09T08:33:12.156Z,3264.00
2019-03-09T08:34:12.068Z,3388.00
2019-03-09T08:35:12.043Z,4532.00
2019-03-09T08:36:11.936Z,6312.00
2019-03-09T08:37:11.881Z,5356.00
2019-03-09T08:38:14.390Z,4820.00
2019-03-09T08:39:11.693Z,4648.00
2019-03-09T08:40:11.592Z,3856.00
2019-03-09T08:41:11.513Z,3832.00
2019-03-09T08:42:11.471Z,4584.00
2019-03-09T08:43:11.369Z,4324.00
2019-03-09T08:44:11.277Z,3588.00
2019-03-09T08:45:11.202Z,5076.00
2019-03-09T08:46:11.124Z,5860.00
2019-03-09T08:47:11.039Z,5720.00
2019-03-09T08:48:10.963Z,5444.00
2019-03-09T08:49:10.945Z,6900.00
2019-03-09T08:50:11.134Z,7612.00
2019-03-09T08:51:10.727Z,7960.00
2019-03-09T08:52:10.702Z,6356.00
2019-03-09T09:07:38.267Z,3680.00
2019-03-09T09:08:38.188Z,3620.00
2019-03-09T09:09:38.107Z,3200.00
2019-03-09T09:10:38.029Z,4512.00
2019-03-09T09:11:37.947Z,3732.00
2019-03-09T09:12:37.892Z,3416.00
2019-03-09T09:13:37.819Z,3792.00
2019-03-09T09:14:37.708Z,3368.00
2019-03-09T09:15:37.630Z,3844.00
2019-03-09T09:16:37.570Z,3924.00
2019-03-09T09:17:37.474Z,3892.00
2019-03-09T09:18:37.410Z,3548.00
2019-03-09T09:19:37.313Z,3952.00
2019-03-09T09:20:37.234Z,3420.00
2019-03-09T09:21:37.157Z,3212.00
2019-03-09T09:22:37.284Z,3352.00
2019-03-09T09:23:36.997Z,2872.00
2019-03-09T09:24:36.919Z,3976.00
2019-03-09T09:25:36.842Z,4224.00
2019-03-09T09:26:36.760Z,3812.00
2019-03-09T09:27:36.685Z,3684.00
2019-03-09T09:28:36.605Z,3268.00
2019-03-09T09:29:36.526Z,3448.00
2019-03-09T09:30:36.447Z,3468.00
2019-03-09T09:31:36.370Z,2404.00
2019-03-09T09:32:36.290Z,3040.00
2019-03-09T09:34:36.133Z,2240.00
2019-03-09T09:35:36.057Z,2284.00
2019-03-09T09:36:35.978Z,1800.00
2019-03-09T09:37:35.925Z,2100.00
2019-03-09T09:49:37.216Z,3428.00
2019-03-09T09:50:37.163Z,2732.00
2019-03-09T09:51:37.061Z,2812.00
2019-03-09T09:52:37.308Z,4492.00
2019-03-09T10:01:57.011Z,5576.00
2019-03-09T10:02:56.953Z,5540.00
2019-03-09T10:03:56.849Z,5396.00
2019-03-09T10:04:56.773Z,5968.00
2019-03-09T10:05:56.690Z,5552.00
2019-03-09T10:06:56.612Z,6328.00
2019-03-09T10:07:56.532Z,4476.00
2019-03-09T10:08:56.453Z,6476.00
2019-03-09T10:09:56.373Z,6140.00
2019-03-09T10:10:56.294Z,4572.00
2019-03-09T10:11:56.215Z,5780.00
2019-03-09T10:12:56.324Z,5692.00
2019-03-09T10:13:56.059Z,5940.00
2019-03-09T10:14:55.979Z,6132.00
2019-03-09T10:15:55.902Z,5428.00
2019-03-09T10:16:55.828Z,3676.00
2019-03-09T10:17:55.745Z,5400.00
2019-03-09T10:18:55.691Z,6748.00
2019-03-09T10:19:55.588Z,6248.00
2019-03-09T10:20:55.556Z,6116.00
2019-03-09T12:35:00.650Z,1640.00
2019-03-09T12:36:00.569Z,2360.00
2019-03-09T12:37:00.492Z,1916.00
2019-03-09T12:38:00.409Z,1724.00
2019-03-09T12:39:00.328Z,1924.00
2019-03-09T12:40:00.383Z,2060.00
2019-03-09T12:41:00.169Z,1912.00
2019-03-09T12:42:00.108Z,1476.00
2019-03-09T12:43:00.010Z,1460.00
2019-03-09T12:43:59.930Z,1940.00
2019-03-09T12:44:59.851Z,1684.00
2019-03-09T12:45:59.773Z,888.00
2019-03-09T12:46:59.693Z,1168.00
2019-03-09T12:47:59.615Z,2256.00
2019-03-09T12:48:59.536Z,2364.00
2019-03-09T12:49:59.456Z,2464.00
2019-03-09T12:50:59.380Z,2620.00
2019-03-09T12:51:59.299Z,2728.00
2019-03-09T12:52:59.220Z,2852.00
2019-03-09T12:53:59.143Z,3988.00
2019-03-09T12:54:59.063Z,5076.00
2019-03-09T12:55:58.992Z,5228.00
2019-03-09T12:56:58.908Z,5628.00
2019-03-09T12:57:58.828Z,5964.00
2019-03-09T12:58:58.752Z,5768.00
2019-03-09T12:59:58.672Z,4760.00
2019-03-09T13:00:58.594Z,4056.00
2019-03-09T13:01:58.517Z,4152.00
2019-03-09T13:02:58.438Z,4536.00
2019-03-09T13:03:58.376Z,4376.00
2019-03-09T13:04:58.282Z,4536.00
2019-03-09T13:05:58.203Z,2852.00
2019-03-09T13:06:58.126Z,3216.00
2019-03-09T13:07:58.047Z,3520.00
2019-03-09T13:08:57.971Z,3716.00
2019-03-09T13:09:57.892Z,3812.00
2019-03-09T13:27:58.906Z,1964.00
2019-03-09T13:28:58.625Z,1748.00
2019-03-09T13:29:58.545Z,1872.00
2019-03-09T13:30:58.466Z,1596.00
2019-03-09T13:31:58.386Z,1688.00
2019-03-09T13:32:58.307Z,1612.00
2019-03-09T13:33:58.229Z,1524.00
2019-03-09T13:34:58.150Z,1492.00
2019-03-09T13:35:58.071Z,1784.00
2019-03-09T13:36:57.992Z,2204.00
2019-03-09T13:37:57.916Z,1804.00
2019-03-09T13:38:57.835Z,2176.00
2019-03-09T13:39:57.756Z,2764.00
2019-03-09T13:40:57.680Z,3112.00
2019-03-09T13:41:57.600Z,3880.00
2019-03-09T13:42:57.520Z,5116.00
2019-03-09T13:43:57.443Z,7452.00
2019-03-09T13:44:57.365Z,7852.00
2019-03-09T13:45:57.287Z,8632.00
2019-03-09T13:46:57.208Z,7000.00
2019-03-09T13:47:57.133Z,8688.00
2019-03-09T13:48:57.053Z,11876.00
2019-03-09T13:49:56.974Z,24000.00
2019-03-09T13:50:56.895Z,16084.00
2019-03-09T13:51:56.818Z,13680.00
2019-03-09T13:52:56.740Z,7508.00
2019-03-09T13:53:56.663Z,6620.00
2019-03-09T13:54:56.589Z,6616.00
2019-03-09T13:55:56.511Z,7888.00
2019-03-09T13:56:56.430Z,5088.00
2019-03-09T13:57:56.354Z,4628.00
2019-03-09T13:58:56.275Z,6744.00
2019-03-09T13:59:56.197Z,3400.00
2019-03-09T14:00:56.122Z,2560.00
2019-03-09T14:01:56.042Z,2468.00
2019-03-09T14:02:55.964Z,2984.00
2019-03-09T14:03:56.037Z,3040.00
2019-03-09T14:04:55.811Z,3176.00
2019-03-09T14:05:55.733Z,2544.00
2019-03-09T14:06:55.656Z,2716.00
2019-03-09T14:07:55.576Z,2336.00
2019-03-09T14:08:55.499Z,2424.00
2019-03-09T14:09:55.421Z,1944.00
2019-03-09T14:10:55.345Z,3064.00
2019-03-09T14:11:55.266Z,2064.00
2019-03-09T14:12:55.193Z,1452.00
2019-03-09T14:13:55.115Z,1804.00
2019-03-09T14:14:55.033Z,1748.00
2019-03-09T14:15:54.954Z,1744.00
2019-03-09T14:16:54.875Z,6100.00
2019-03-09T14:17:54.803Z,4220.00
2019-03-09T14:18:54.719Z,4436.00
2019-03-09T14:19:54.641Z,3324.00
2019-03-09T14:20:54.565Z,6512.00
2019-03-09T14:21:54.495Z,2572.00
2019-03-09T14:22:54.407Z,2500.00
2019-03-09T14:23:54.328Z,2304.00
2019-03-09T14:24:54.254Z,2640.00
2019-03-09T14:25:54.172Z,6484.00
2019-03-09T14:26:54.093Z,4048.00
2019-03-09T14:27:54.014Z,2112.00
2019-03-09T14:28:53.940Z,2848.00
2019-03-09T14:29:53.859Z,2672.00
2019-03-09T14:30:53.779Z,3560.00
2019-03-09T14:31:53.702Z,6096.00
2019-03-09T14:32:53.624Z,6924.00
2019-03-09T14:33:53.545Z,3332.00
2019-03-09T14:34:53.467Z,3600.00
2019-03-09T14:35:53.388Z,4028.00
2019-03-09T14:36:53.310Z,2540.00
2019-03-09T14:37:53.233Z,1756.00
2019-03-09T14:38:53.154Z,1416.00
2019-03-09T14:39:53.077Z,2532.00
2019-03-09T14:40:52.999Z,4232.00
2019-03-09T14:41:52.921Z,2236.00
2019-03-09T14:42:52.841Z,2992.00
2019-03-09T14:43:52.763Z,2076.00
2019-03-09T14:44:52.688Z,1692.00
2019-03-09T14:45:52.608Z,1200.00
2019-03-09T14:46:52.528Z,1204.00
2019-03-09T14:47:52.454Z,1804.00
2019-03-09T14:48:52.372Z,3348.00
2019-03-09T14:49:52.295Z,3472.00
2019-03-09T14:50:52.216Z,2912.00
2019-03-09T14:51:52.138Z,2968.00
2019-03-09T14:52:52.063Z,2628.00
2019-03-09T14:53:51.982Z,3116.00
2019-03-09T14:54:51.903Z,3644.00
2019-03-09T14:55:51.826Z,2348.00
2019-03-09T14:56:51.747Z,1976.00
2019-03-09T14:57:51.670Z,1944.00
2019-03-09T14:58:51.589Z,1904.00
2019-03-09T14:59:51.517Z,2336.00
2019-03-09T15:00:51.433Z,1888.00
2019-03-09T15:01:51.354Z,1892.00
2019-03-09T15:02:51.278Z,1500.00
2019-03-09T15:03:51.200Z,1724.00
2019-03-09T15:04:51.121Z,816.00
2019-03-09T15:05:51.043Z,592.00
2019-03-09T15:06:50.963Z,716.00
2019-03-09T15:07:50.886Z,864.00
2019-03-09T15:08:50.807Z,632.00
2019-03-09T15:09:50.729Z,868.00
2019-03-09T15:10:50.651Z,632.00
2019-03-09T15:11:50.573Z,1048.00
2019-03-09T15:12:50.494Z,1304.00
2019-03-09T15:13:52.461Z,964.00
2019-03-09T15:14:50.337Z,1004.00
2019-03-09T15:15:50.259Z,864.00
2019-03-09T15:16:50.188Z,1600.00
2019-03-09T15:17:50.116Z,1284.00
2019-03-09T15:18:50.025Z,1040.00
2019-03-09T15:19:49.944Z,2040.00
2019-03-09T15:20:49.871Z,1208.00
2019-03-09T15:21:49.787Z,1364.00
2019-03-09T15:22:49.725Z,1508.00
2019-03-09T15:23:49.630Z,1216.00
2019-03-09T15:24:49.552Z,1140.00
2019-03-09T15:25:49.474Z,1160.00
2019-03-09T15:26:49.393Z,2068.00
2019-03-09T15:27:49.318Z,2028.00
2019-03-09T15:28:49.237Z,1608.00
2019-03-09T15:29:49.158Z,1820.00
2019-03-09T15:30:49.079Z,3728.00
2019-03-09T15:31:49.000Z,3804.00
2019-03-09T15:32:48.924Z,3496.00
2019-03-09T15:33:48.846Z,3752.00
2019-03-09T15:34:48.768Z,4796.00
2019-03-09T15:35:48.687Z,3280.00
2019-03-09T15:36:48.608Z,5844.00
2019-03-09T15:37:48.532Z,4740.00
2019-03-09T15:38:48.451Z,3364.00
2019-03-09T15:39:48.373Z,3912.00
2019-03-09T15:40:48.296Z,3236.00
2019-03-09T15:41:48.217Z,4296.00
2019-03-09T15:42:48.141Z,4632.00
2019-03-09T15:43:48.060Z,3660.00
2019-03-09T15:44:47.983Z,5096.00
2019-03-09T15:45:47.905Z,3808.00
2019-03-09T15:46:47.825Z,4376.00
2019-03-09T15:47:47.847Z,3312.00
2019-03-09T15:48:47.674Z,4824.00
2019-03-09T15:49:47.591Z,4436.00
2019-03-09T15:50:47.513Z,3452.00
2019-03-09T15:51:47.438Z,3248.00
2019-03-09T15:52:47.359Z,2760.00